createdAt,value
2022-10-04T00:02:25.253Z,6.60
2022-10-04T00:05:00.019Z,6.43
2022-10-04T00:07:30.911Z,6.13
2022-10-04T00:10:04.166Z,5.70
2022-10-04T00:12:36.281Z,6.80
2022-10-04T00:15:08.554Z,6.27
2022-10-04T00:17:36.530Z,6.10
2022-10-04T00:20:25.276Z,5.60
2022-10-04T00:23:28.622Z,6.37
2022-10-04T00:26:00.238Z,6.30
2022-10-04T00:28:43.788Z,6.03
2022-10-04T00:31:22.050Z,6.30
2022-10-04T00:33:52.276Z,6.80
2022-10-04T00:36:46.782Z,6.93
2022-10-04T00:39:26.036Z,6.97
2022-10-04T00:42:02.686Z,7.37
2022-10-04T00:44:38.933Z,7.10
2022-10-04T00:47:23.023Z,6.60
2022-10-04T00:49:57.033Z,6.50
2022-10-04T00:52:29.151Z,5.83
2022-10-04T00:54:59.590Z,6.80
2022-10-04T00:57:31.219Z,7.33
2022-10-04T01:00:04.758Z,7.20
2022-10-04T01:02:40.158Z,7.33
2022-10-04T01:05:12.198Z,6.57
2022-10-04T01:07:43.449Z,7.23
2022-10-04T01:10:15.415Z,6.37
2022-10-04T01:12:50.858Z,6.20
2022-10-04T01:15:27.059Z,6.67
2022-10-04T01:18:14.531Z,6.53
2022-10-04T01:20:54.333Z,6.70
2022-10-04T01:23:39.047Z,6.87
2022-10-04T01:26:08.220Z,6.73
2022-10-04T01:28:36.716Z,6.93
2022-10-04T01:31:04.872Z,6.33
2022-10-04T01:33:32.825Z,7.00
2022-10-04T01:36:00.904Z,6.60
2022-10-04T01:38:28.956Z,7.27
2022-10-04T01:41:02.418Z,7.33
2022-10-04T01:43:37.497Z,6.83
2022-10-04T01:46:11.385Z,7.67
2022-10-04T01:48:44.590Z,7.70
2022-10-04T01:51:17.262Z,6.73
2022-10-04T01:53:51.400Z,7.23
2022-10-04T01:56:24.169Z,7.93
2022-10-04T01:58:56.395Z,7.60
2022-10-04T02:01:31.221Z,8.27
2022-10-04T02:04:01.990Z,7.70
2022-10-04T02:06:31.025Z,7.30
2022-10-04T02:08:59.549Z,7.17
2022-10-04T02:11:31.139Z,6.57
2022-10-04T02:14:01.119Z,7.17
2022-10-04T02:16:29.386Z,7.47
2022-10-04T02:18:58.348Z,7.13
2022-10-04T02:21:26.398Z,6.60
2022-10-04T02:23:54.885Z,6.37
2022-10-04T02:26:22.885Z,6.80
2022-10-04T02:28:52.452Z,6.90
2022-10-04T02:31:40.527Z,6.77
2022-10-04T02:34:09.364Z,7.13
2022-10-04T02:36:38.349Z,7.27
2022-10-04T02:39:11.029Z,7.03
2022-10-04T02:41:44.593Z,7.13
2022-10-04T02:44:17.615Z,7.23
2022-10-04T02:46:52.482Z,7.17
2022-10-04T02:49:29.229Z,7.33
2022-10-04T02:52:03.415Z,6.87
2022-10-04T02:54:36.529Z,6.67
2022-10-04T02:57:05.568Z,6.57
2022-10-04T02:59:35.708Z,6.93
2022-10-04T03:02:04.000Z,6.23
2022-10-04T03:04:34.422Z,6.73
2022-10-04T03:07:05.779Z,6.70
2022-10-04T03:09:36.371Z,6.60
2022-10-04T03:12:05.888Z,7.20
2022-10-04T03:14:35.509Z,6.67
2022-10-04T03:17:04.852Z,6.50
2022-10-04T03:19:34.426Z,6.10
2022-10-04T03:22:05.752Z,6.60
2022-10-04T03:24:35.613Z,6.70
2022-10-04T03:27:08.134Z,6.63
2022-10-04T03:29:43.767Z,6.73
2022-10-04T03:32:15.536Z,6.73
2022-10-04T03:34:49.578Z,6.17
2022-10-04T03:37:21.510Z,6.50
2022-10-04T03:39:53.118Z,6.70
2022-10-04T03:42:23.330Z,6.57
2022-10-04T03:44:56.206Z,6.30
2022-10-04T03:47:28.504Z,6.43
2022-10-04T03:49:59.459Z,6.50
2022-10-04T03:52:32.826Z,6.57
2022-10-04T03:55:03.500Z,6.73
2022-10-04T03:57:32.150Z,6.83
2022-10-04T04:00:02.627Z,6.03
2022-10-04T04:02:46.170Z,6.60
2022-10-04T04:05:20.280Z,6.80
2022-10-04T04:07:54.200Z,6.83
2022-10-04T04:10:25.883Z,6.90
2022-10-04T04:12:58.104Z,6.47
2022-10-04T04:15:30.744Z,6.47
2022-10-04T04:18:03.330Z,6.23
2022-10-04T04:20:33.872Z,6.47
2022-10-04T04:23:06.376Z,6.50
2022-10-04T04:25:38.134Z,6.43
2022-10-04T04:28:15.978Z,6.80
2022-10-04T04:30:49.429Z,6.47
2022-10-04T04:33:26.943Z,7.00
2022-10-04T04:36:05.332Z,6.83
2022-10-04T04:38:35.229Z,5.30
2022-10-04T04:41:11.034Z,6.40
2022-10-04T04:43:44.788Z,6.40
2022-10-04T04:46:29.496Z,5.57
2022-10-04T04:49:02.461Z,5.77
2022-10-04T04:51:32.382Z,6.07
2022-10-04T04:54:03.454Z,6.17
2022-10-04T04:56:32.363Z,6.00
2022-10-04T04:59:04.333Z,5.90
2022-10-04T05:01:36.757Z,6.57
2022-10-04T05:04:06.657Z,6.67
2022-10-04T05:06:36.686Z,6.37
2022-10-04T05:09:05.167Z,5.93
2022-10-04T05:11:35.986Z,5.93
2022-10-04T05:14:07.396Z,6.67
2022-10-04T05:16:41.873Z,5.93
2022-10-04T05:19:15.707Z,5.63
2022-10-04T05:21:47.703Z,6.10
2022-10-04T05:24:22.480Z,5.83
2022-10-04T05:26:52.005Z,5.70
2022-10-04T05:29:22.565Z,6.47
2022-10-04T05:31:59.170Z,6.23
2022-10-04T05:34:29.794Z,5.70
2022-10-04T05:37:09.846Z,6.10
2022-10-04T05:39:44.124Z,5.60
2022-10-04T05:42:21.222Z,6.03
2022-10-04T05:44:52.746Z,5.90
2022-10-04T05:47:24.133Z,6.73
2022-10-04T05:49:55.482Z,5.97
2022-10-04T05:52:30.421Z,6.27
2022-10-04T05:55:19.119Z,6.70
2022-10-04T05:57:54.666Z,6.57
2022-10-04T06:00:26.767Z,6.03
2022-10-04T06:03:15.495Z,5.63
2022-10-04T06:05:50.994Z,6.00
2022-10-04T06:08:31.312Z,6.00
2022-10-04T06:11:06.508Z,6.60
2022-10-04T06:13:55.466Z,6.20
2022-10-04T06:16:38.043Z,5.87
2022-10-04T06:19:19.624Z,5.13
2022-10-04T06:22:10.539Z,5.83
2022-10-04T06:24:42.171Z,5.63
2022-10-04T06:27:16.009Z,5.20
2022-10-04T06:29:50.673Z,5.43
2022-10-04T06:32:49.223Z,5.43
2022-10-04T06:35:47.295Z,5.80
2022-10-04T06:38:32.951Z,5.60
2022-10-04T06:41:18.850Z,5.73
2022-10-04T06:44:05.755Z,5.80
2022-10-04T06:46:43.539Z,6.17
2022-10-04T06:49:35.289Z,6.30
2022-10-04T06:52:32.017Z,6.30
2022-10-04T06:55:28.327Z,6.00
2022-10-04T06:58:12.964Z,5.63
2022-10-04T07:00:49.778Z,10.30
2022-10-04T07:03:26.455Z,6.57
2022-10-04T07:05:59.065Z,6.60
2022-10-04T07:08:39.926Z,6.80
2022-10-04T07:11:15.249Z,7.23
2022-10-04T07:13:49.833Z,6.60
2022-10-04T07:16:32.388Z,6.77
2022-10-04T07:19:13.500Z,6.77
2022-10-04T07:21:50.242Z,7.60
2022-10-04T07:24:25.969Z,7.53
2022-10-04T07:26:56.348Z,10.90
2022-10-04T07:29:27.859Z,13.63
2022-10-04T07:32:08.649Z,13.87
2022-10-04T07:34:41.391Z,11.60
2022-10-04T07:37:12.772Z,13.23
2022-10-04T07:39:51.730Z,10.10
2022-10-04T07:42:27.206Z,10.03
2022-10-04T07:45:06.916Z,8.73
2022-10-04T07:47:35.169Z,11.40
2022-10-04T07:50:21.583Z,10.83
2022-10-04T07:52:54.822Z,9.70
2022-10-04T07:55:33.056Z,8.80
2022-10-04T07:58:16.985Z,8.63
2022-10-04T08:00:56.367Z,8.60
2022-10-04T08:03:56.074Z,8.00
2022-10-04T08:06:31.943Z,7.60
2022-10-04T08:09:20.089Z,7.43
2022-10-04T08:11:57.763Z,7.20
2022-10-04T08:14:32.671Z,6.77
2022-10-04T08:17:15.749Z,6.43
2022-10-04T08:19:53.798Z,6.87
2022-10-04T08:22:34.584Z,6.60
2022-10-04T08:25:09.727Z,6.13
2022-10-04T08:28:12.066Z,6.40
2022-10-04T08:30:52.926Z,5.57
2022-10-04T08:33:32.776Z,5.70
2022-10-04T08:36:10.476Z,5.60
2022-10-04T08:38:45.043Z,9.53
2022-10-04T08:41:46.003Z,8.20
2022-10-04T08:44:50.370Z,10.57
2022-10-04T08:47:40.998Z,9.57
2022-10-04T08:50:35.524Z,9.40
2022-10-04T08:53:36.477Z,8.60
2022-10-04T08:56:14.595Z,6.80
2022-10-04T08:59:33.943Z,8.67
2022-10-04T09:02:58.292Z,6.20
2022-10-04T09:06:01.371Z,8.00
2022-10-04T09:09:14.544Z,7.13
2022-10-04T09:12:15.294Z,7.80
2022-10-04T09:15:21.143Z,6.97
2022-10-04T09:17:55.995Z,7.17
2022-10-04T09:20:40.929Z,6.40
2022-10-04T09:23:42.291Z,5.77
2022-10-04T09:26:21.704Z,5.13
2022-10-04T09:29:28.029Z,4.70
2022-10-04T09:32:33.668Z,4.90
2022-10-04T09:35:34.982Z,4.50
2022-10-04T09:39:25.268Z,4.13
2022-10-04T09:42:27.950Z,4.20
2022-10-04T09:45:27.532Z,4.20
2022-10-04T09:48:25.259Z,4.47
2022-10-04T09:51:17.736Z,4.27
2022-10-04T09:53:58.632Z,4.00
2022-10-04T09:56:51.233Z,3.87
2022-10-04T09:59:57.076Z,4.27
2022-10-04T10:02:58.401Z,3.90
2022-10-04T10:05:38.562Z,3.67
2022-10-04T10:08:18.856Z,3.70
2022-10-04T10:11:15.681Z,3.80
2022-10-04T10:14:07.205Z,3.30
2022-10-04T10:16:42.915Z,3.40
2022-10-04T10:19:32.676Z,2.70
2022-10-04T10:22:17.116Z,2.70
2022-10-04T10:25:09.110Z,2.50
2022-10-04T10:28:02.725Z,2.70
2022-10-04T10:30:42.774Z,2.43
2022-10-04T10:33:38.061Z,2.40
2022-10-04T10:36:28.373Z,2.20
2022-10-04T10:39:10.229Z,2.60
2022-10-04T10:41:51.363Z,3.00
2022-10-04T10:44:34.615Z,2.30
2022-10-04T10:47:23.345Z,2.23
2022-10-04T10:50:17.319Z,2.13
2022-10-04T10:53:14.147Z,2.43
2022-10-04T10:56:29.302Z,2.53
2022-10-04T10:59:31.894Z,2.20
2022-10-04T11:02:47.805Z,2.27
2022-10-04T11:06:03.340Z,2.20
2022-10-04T11:09:01.656Z,2.73
2022-10-04T11:11:56.028Z,2.77
2022-10-04T11:15:06.033Z,2.40
2022-10-04T11:18:17.661Z,2.93
2022-10-04T11:21:35.638Z,2.60
2022-10-04T11:24:35.499Z,3.30
2022-10-04T11:27:14.087Z,3.03
2022-10-04T11:29:59.817Z,3.10
2022-10-04T11:33:04.364Z,2.60
2022-10-04T11:35:46.440Z,7.90
2022-10-04T11:38:27.864Z,6.73
2022-10-04T11:41:10.943Z,6.90
2022-10-04T11:44:04.613Z,4.47
2022-10-04T11:46:46.128Z,3.20
2022-10-04T11:49:41.151Z,6.40
2022-10-04T11:52:36.868Z,4.87
2022-10-04T11:55:35.072Z,2.77
2022-10-04T11:58:12.002Z,2.23
2022-10-04T12:01:08.416Z,2.07
2022-10-04T12:04:04.155Z,2.70
2022-10-04T12:06:48.572Z,2.03
2022-10-04T12:09:24.213Z,2.37
2022-10-04T12:12:40.500Z,2.60
2022-10-04T12:15:34.749Z,3.27
2022-10-04T12:18:26.550Z,3.97
2022-10-04T12:21:28.904Z,9.47
2022-10-04T12:24:17.674Z,3.30
2022-10-04T12:27:24.334Z,4.63
2022-10-04T12:30:23.910Z,2.00
2022-10-04T12:33:02.508Z,3.00
2022-10-04T12:35:43.472Z,2.53
2022-10-04T12:38:47.072Z,2.60
2022-10-04T12:41:28.200Z,2.20
2022-10-04T12:44:07.797Z,2.63
2022-10-04T12:46:45.889Z,2.28
2022-10-04T12:49:23.476Z,2.10
2022-10-04T12:51:57.403Z,2.23
2022-10-04T12:54:38.790Z,2.47
2022-10-04T12:57:33.296Z,2.30
2022-10-04T13:00:07.076Z,2.13
2022-10-04T13:02:54.235Z,2.10
2022-10-04T13:05:31.082Z,2.70
2022-10-04T13:08:11.126Z,2.57
2022-10-04T13:10:55.280Z,2.40
2022-10-04T13:13:49.739Z,2.33
2022-10-04T13:19:20.667Z,2.50
2022-10-04T13:22:11.824Z,3.10
2022-10-04T13:24:56.611Z,2.30
2022-10-04T13:27:35.272Z,2.53
2022-10-04T13:30:08.128Z,2.35
2022-10-04T13:32:45.308Z,2.38
2022-10-04T13:35:20.951Z,2.20
2022-10-04T13:38:03.584Z,4.68
2022-10-04T13:40:44.666Z,2.30
2022-10-04T13:43:49.500Z,2.50
2022-10-04T13:46:29.109Z,2.55
2022-10-04T13:49:07.368Z,2.28
2022-10-04T13:52:12.923Z,2.53
2022-10-04T13:55:05.264Z,2.05
2022-10-04T13:57:44.349Z,2.10
2022-10-04T14:00:17.622Z,2.25
2022-10-04T14:03:04.864Z,2.30
2022-10-04T14:06:11.490Z,2.10
2022-10-04T14:09:19.787Z,2.15
2022-10-04T14:12:26.479Z,2.25
2022-10-04T14:15:36.317Z,1.80
2022-10-04T14:18:29.088Z,1.98
2022-10-04T14:21:37.688Z,2.10
2022-10-04T14:24:44.215Z,1.58
2022-10-04T14:27:39.616Z,2.08
2022-10-04T14:30:18.453Z,1.92
2022-10-04T14:33:21.416Z,2.08
2022-10-04T14:35:58.968Z,1.95
2022-10-04T14:38:43.264Z,1.60
2022-10-04T14:41:47.797Z,2.03
2022-10-04T14:44:51.287Z,2.17
2022-10-04T14:47:44.769Z,1.70
2022-10-04T14:50:25.811Z,1.80
2022-10-04T14:53:11.347Z,2.30
2022-10-04T14:56:07.916Z,2.10
2022-10-04T14:58:42.083Z,2.20
2022-10-04T15:01:22.148Z,2.22
2022-10-04T15:04:13.838Z,1.92
2022-10-04T15:06:48.734Z,1.90
2022-10-04T15:09:52.922Z,2.13
2022-10-04T15:13:11.080Z,2.40
2022-10-04T15:15:58.605Z,2.43
2022-10-04T15:18:39.274Z,2.27
2022-10-04T15:21:21.499Z,2.70
2022-10-04T15:23:54.035Z,2.37
2022-10-04T15:26:50.840Z,2.30
2022-10-04T15:29:26.291Z,2.20
2022-10-04T15:32:07.520Z,2.50
2022-10-04T15:34:45.597Z,2.20
2022-10-04T15:37:29.442Z,2.10
2022-10-04T15:40:19.743Z,2.23
2022-10-04T15:43:07.523Z,2.10
2022-10-04T15:45:59.409Z,1.70
2022-10-04T15:48:47.626Z,2.13
2022-10-04T15:51:21.205Z,2.47
2022-10-04T15:54:05.783Z,2.30
2022-10-04T15:56:46.403Z,2.77
2022-10-04T15:59:49.915Z,2.20
2022-10-04T16:02:47.051Z,2.13
2022-10-04T16:05:23.455Z,2.53
2022-10-04T16:08:23.087Z,2.27
2022-10-04T16:11:12.019Z,2.37
2022-10-04T16:13:49.379Z,2.00
2022-10-04T16:16:59.415Z,2.30
2022-10-04T16:19:47.891Z,2.20
2022-10-04T16:22:18.397Z,2.23
2022-10-04T16:24:49.846Z,2.23
2022-10-04T16:27:50.433Z,1.90
2022-10-04T16:30:27.839Z,2.43
2022-10-04T16:33:22.927Z,2.20
2022-10-04T16:36:06.467Z,2.30
2022-10-04T16:39:04.275Z,2.40
2022-10-04T16:41:40.123Z,2.20
2022-10-04T16:44:22.969Z,2.23
2022-10-04T16:46:53.109Z,1.93
2022-10-04T16:49:29.448Z,2.20
2022-10-04T16:52:22.396Z,2.00
2022-10-04T16:55:03.644Z,2.10
2022-10-04T16:57:31.963Z,2.30
2022-10-04T17:00:05.677Z,1.97
2022-10-04T17:03:05.588Z,2.03
2022-10-04T17:06:04.459Z,2.40
2022-10-04T17:08:49.693Z,2.43
2022-10-04T17:11:43.992Z,2.57
2022-10-04T17:14:50.646Z,2.80
2022-10-04T17:17:25.384Z,3.00
2022-10-04T17:20:00.363Z,3.13
2022-10-04T17:22:35.759Z,2.83
2022-10-04T17:25:17.553Z,2.90
2022-10-04T17:27:49.138Z,3.33
2022-10-04T17:30:21.436Z,2.97
2022-10-04T17:33:06.248Z,3.30
2022-10-04T17:35:55.778Z,3.57
2022-10-04T17:38:31.613Z,3.63
2022-10-04T17:41:10.454Z,3.43
2022-10-04T17:43:46.789Z,3.23
2022-10-04T17:46:22.662Z,3.13
2022-10-04T17:49:15.372Z,3.03
2022-10-04T17:52:04.528Z,3.17
2022-10-04T17:54:57.471Z,3.10
2022-10-04T17:57:34.130Z,3.23
2022-10-04T18:00:10.652Z,3.40
2022-10-04T18:03:08.644Z,3.20
2022-10-04T18:05:47.380Z,3.00
2022-10-04T18:08:21.889Z,3.13
2022-10-04T18:10:54.712Z,3.57
2022-10-04T18:13:31.665Z,3.20
2022-10-04T18:16:05.225Z,3.20
2022-10-04T18:18:40.105Z,3.70
2022-10-04T18:21:20.812Z,3.10
2022-10-04T18:23:57.683Z,3.07
2022-10-04T18:26:29.725Z,2.97
2022-10-04T18:29:00.999Z,3.40
2022-10-04T18:31:37.878Z,3.40
2022-10-04T18:34:32.006Z,3.00
2022-10-04T18:37:19.797Z,3.50
2022-10-04T18:39:53.243Z,3.60
2022-10-04T18:42:28.836Z,3.07
2022-10-04T18:45:01.168Z,3.10
2022-10-04T18:47:36.960Z,3.27
2022-10-04T18:50:17.443Z,3.43
2022-10-04T18:52:56.488Z,3.20
2022-10-04T18:55:34.242Z,3.43
2022-10-04T18:58:30.283Z,3.50
2022-10-04T19:01:32.632Z,4.20
2022-10-04T19:04:09.608Z,3.43
2022-10-04T19:06:38.974Z,4.37
2022-10-04T19:09:19.416Z,3.13
2022-10-04T19:11:54.010Z,3.30
2022-10-04T19:14:29.461Z,3.50
2022-10-04T19:17:02.503Z,3.57
2022-10-04T19:19:40.926Z,3.50
2022-10-04T19:22:20.557Z,3.40
2022-10-04T19:25:06.000Z,3.40
2022-10-04T19:27:39.167Z,3.47
2022-10-04T19:30:16.253Z,3.87
2022-10-04T19:32:57.508Z,3.63
2022-10-04T19:35:50.472Z,3.43
2022-10-04T19:38:38.066Z,3.63
2022-10-04T19:41:14.361Z,3.57
2022-10-04T19:43:50.548Z,3.57
2022-10-04T19:46:29.748Z,3.93
2022-10-04T19:48:59.195Z,3.83
2022-10-04T19:51:34.788Z,3.50
2022-10-04T19:54:13.384Z,3.63
2022-10-04T19:56:47.539Z,3.67
2022-10-04T19:59:18.560Z,3.60
2022-10-04T20:01:46.653Z,3.07
2022-10-04T20:04:36.003Z,3.67
2022-10-04T20:07:06.074Z,3.43
2022-10-04T20:09:51.421Z,3.67
2022-10-04T20:12:37.891Z,3.83
2022-10-04T20:15:46.537Z,3.77
2022-10-04T20:18:51.130Z,3.77
2022-10-04T20:21:29.687Z,3.50
2022-10-04T20:23:57.702Z,3.83
2022-10-04T20:27:01.186Z,3.60
2022-10-04T20:30:05.221Z,4.20
2022-10-04T20:32:55.175Z,3.90
2022-10-04T20:36:12.071Z,4.17
2022-10-04T20:38:55.615Z,3.67
2022-10-04T20:42:17.835Z,4.00
2022-10-04T20:44:51.122Z,3.90
2022-10-04T20:47:31.887Z,5.43
2022-10-04T20:50:01.621Z,4.80
2022-10-04T20:52:31.698Z,4.70
2022-10-04T20:55:02.865Z,4.60
2022-10-04T20:57:31.566Z,3.60
2022-10-04T20:59:59.795Z,4.00
2022-10-04T21:02:28.798Z,4.20
2022-10-04T21:05:13.532Z,4.13
2022-10-04T21:07:47.400Z,4.40
2022-10-04T21:10:20.752Z,4.27
2022-10-04T21:12:49.491Z,5.20
2022-10-04T21:15:22.793Z,5.10
2022-10-04T21:18:10.904Z,4.83
2022-10-04T21:20:46.949Z,4.43
2022-10-04T21:23:29.986Z,4.67
2022-10-04T21:26:20.972Z,4.57
2022-10-04T21:28:49.188Z,4.73
2022-10-04T21:31:17.338Z,6.07
2022-10-04T21:33:45.354Z,7.13
2022-10-04T21:36:13.265Z,5.33
2022-10-04T21:38:41.261Z,5.50
2022-10-04T21:41:09.364Z,5.17
2022-10-04T21:43:38.676Z,4.03
2022-10-04T21:46:06.770Z,4.60
2022-10-04T21:48:34.695Z,4.43
2022-10-04T21:51:02.563Z,5.97
2022-10-04T21:53:30.439Z,4.30
2022-10-04T21:55:58.283Z,4.63
2022-10-04T21:58:26.246Z,4.37
2022-10-04T22:00:55.538Z,4.70
2022-10-04T22:03:23.542Z,4.47
2022-10-04T22:05:51.497Z,4.47
2022-10-04T22:08:19.422Z,4.20
2022-10-04T22:10:48.041Z,4.03
2022-10-04T22:13:16.082Z,4.30
2022-10-04T22:15:43.949Z,4.50
2022-10-04T22:18:13.139Z,3.90
2022-10-04T22:20:41.082Z,3.43
2022-10-04T22:23:16.179Z,3.60
2022-10-04T22:25:44.033Z,3.83
2022-10-04T22:28:19.538Z,4.03
2022-10-04T22:30:49.428Z,3.60
2022-10-04T22:33:28.795Z,3.80
2022-10-04T22:35:58.889Z,4.00
2022-10-04T22:38:26.741Z,4.07
2022-10-04T22:40:54.708Z,4.50
2022-10-04T22:43:22.711Z,4.63
2022-10-04T22:45:50.673Z,4.27
2022-10-04T22:48:18.551Z,4.03
2022-10-04T22:50:47.793Z,4.30
2022-10-04T22:53:20.613Z,4.77
2022-10-04T22:55:50.363Z,4.87
2022-10-04T22:58:21.073Z,12.37
2022-10-04T23:00:50.235Z,10.60
2022-10-04T23:03:27.491Z,6.57
2022-10-04T23:05:56.782Z,17.53
2022-10-04T23:08:24.859Z,4.70
2022-10-04T23:10:55.662Z,4.60
2022-10-04T23:13:25.030Z,4.77
2022-10-04T23:15:53.867Z,6.10
2022-10-04T23:18:21.795Z,5.43
2022-10-04T23:20:54.030Z,5.43
2022-10-04T23:23:23.297Z,5.00
2022-10-04T23:25:51.693Z,4.30
2022-10-04T23:28:20.367Z,4.13
2022-10-04T23:30:59.307Z,4.10
2022-10-04T23:33:27.453Z,4.47
2022-10-04T23:35:56.873Z,4.43
2022-10-04T23:38:26.480Z,4.40
2022-10-04T23:40:54.826Z,4.70
2022-10-04T23:43:25.638Z,4.27
2022-10-04T23:45:54.908Z,4.17
2022-10-04T23:48:26.237Z,4.70
2022-10-04T23:50:55.590Z,4.80
2022-10-04T23:53:28.324Z,4.87
2022-10-04T23:55:58.774Z,4.37
2022-10-04T23:58:31.312Z,5.00
